Stove Pipe Wells, California
Current Conditions -  °F | °C
As of 5:56 PM on Thursday 20 Nov 2014 (Local Time) from KNID Reporting Station
Overcast Overcast  
Wind Chill: 60°   Ceiling: 17000
Heat Index: 60°   Visibility: 10mi
Dew Point: 31°   Wind: 0mph
Humidity: 33%   Direction: NA
Pressure: 29.9"   Gusts: NA
Location:  36.3785°N, 117.161°W
Report Text: KNID 210156Z 00000KT 10SM OVC170 16/M01 A2990 RMK AO2 SLP127 T01561006 $
Loading
Personal Weather Stations






























Interactive Weather Map New forecast layout! Learn more

10-Day Weather Forecast

Advertisements
Track Severe Weather on mobile